Time;durP1;ratioP1;P1;durP2;ratioP2;P2;SDS_P1;SDS_P2;PMS_P1;PMS_P2;Temp;Humidity;BMP_temperature;BMP_pressure;BME280_temperature;BME280_humidity;BME280_pressure;Samples;Min_cycle;Max_cycle;Signal;HPM_P1;HPM_P2
2021/09/02 00:00:28;;;;;;;3.90;3.10;;;;;;;;;;4457452;32;20621;-51
2021/09/02 00:02:53;;;;;;;6.22;3.67;;;;;;;;;;4453209;32;20232;-51
2021/09/02 00:05:19;;;;;;;7.75;2.67;;;;;;;;;;4454395;32;20208;-50
2021/09/02 00:07:44;;;;;;;8.60;3.65;;;;;;;;;;4464918;32;20251;-52
2021/09/02 00:10:10;;;;;;;3.83;2.87;;;;;;;;;;4464855;32;20208;-50
2021/09/02 00:12:36;;;;;;;5.32;3.47;;;;;;;;;;4465101;32;20746;-52
2021/09/02 00:15:02;;;;;;;4.47;2.75;;;;;;;;;;4464641;32;20608;-51
2021/09/02 00:17:27;;;;;;;3.70;2.35;;;;;;;;;;4463687;32;20252;-50
2021/09/02 00:19:53;;;;;;;8.35;2.90;;;;;;;;;;4463405;32;20212;-51
2021/09/02 00:22:18;;;;;;;4.68;2.87;;;;;;;;;;4464472;32;20223;-51
2021/09/02 00:24:44;;;;;;;3.62;3.03;;;;;;;;;;4464319;32;20226;-51
2021/09/02 00:27:09;;;;;;;4.25;3.35;;;;;;;;;;4464215;32;20291;-51
2021/09/02 00:29:35;;;;;;;4.43;3.08;;;;;;;;;;4464180;32;20301;-52
2021/09/02 00:32:00;;;;;;;4.25;2.65;;;;;;;;;;4464485;32;20216;-51
2021/09/02 00:34:26;;;;;;;6.12;2.90;;;;;;;;;;4464562;32;20204;-50
2021/09/02 00:36:51;;;;;;;12.02;4.43;;;;;;;;;;4464203;32;20258;-51
2021/09/02 00:39:17;;;;;;;7.32;3.87;;;;;;;;;;4455170;32;20272;-51
2021/09/02 00:41:42;;;;;;;4.65;3.30;;;;;;;;;;4454719;32;20584;-50
2021/09/02 00:44:08;;;;;;;5.93;3.10;;;;;;;;;;4463813;32;20262;-50
2021/09/02 00:46:33;;;;;;;6.03;4.05;;;;;;;;;;4464428;32;20418;-51
2021/09/02 00:48:59;;;;;;;6.30;3.42;;;;;;;;;;4464340;32;20248;-51
2021/09/02 00:51:24;;;;;;;6.47;4.22;;;;;;;;;;4464060;32;20564;-51
2021/09/02 00:53:55;;;;;;;5.65;3.42;;;;;;;;;;4462902;32;20223;-51
2021/09/02 00:56:23;;;;;;;8.07;4.47;;;;;;;;;;4461513;32;20235;-51
2021/09/02 00:58:49;;;;;;;5.70;3.50;;;;;;;;;;4451217;32;20208;-51
2021/09/02 01:01:16;;;;;;;5.50;3.15;;;;;;;;;;4461671;32;20549;-52
2021/09/02 01:03:42;;;;;;;6.45;3.62;;;;;;;;;;4460976;32;20290;-51
2021/09/02 01:06:08;;;;;;;6.18;3.47;;;;;;;;;;4461710;32;20797;-51
2021/09/02 01:08:34;;;;;;;5.12;4.05;;;;;;;;;;4462076;32;20266;-51
2021/09/02 01:10:59;;;;;;;4.00;3.05;;;;;;;;;;4462157;32;20275;-51
2021/09/02 01:13:25;;;;;;;6.60;3.55;;;;;;;;;;4460759;32;20298;-51
2021/09/02 01:15:51;;;;;;;5.60;3.33;;;;;;;;;;4463647;32;20298;-52
2021/09/02 01:18:17;;;;;;;10.15;4.15;;;;;;;;;;4456119;32;20301;-51
2021/09/02 01:20:42;;;;;;;7.22;3.55;;;;;;;;;;4462115;32;20603;-51
2021/09/02 01:23:08;;;;;;;4.65;3.55;;;;;;;;;;4463626;32;20295;-52
2021/09/02 01:25:42;;;;;;;4.10;2.95;;;;;;;;;;4461987;32;20295;-51
2021/09/02 01:28:10;;;;;;;5.57;2.75;;;;;;;;;;4452330;32;20255;-51
2021/09/02 01:30:38;;;;;;;4.20;2.78;;;;;;;;;;4462702;32;20306;-51
2021/09/02 01:33:05;;;;;;;5.57;3.58;;;;;;;;;;4461139;32;20220;-50
2021/09/02 01:35:33;;;;;;;9.88;4.05;;;;;;;;;;4447171;32;20213;-50
2021/09/02 01:38:01;;;;;;;5.60;3.35;;;;;;;;;;4447218;32;20682;-50
2021/09/02 01:40:29;;;;;;;5.03;3.70;;;;;;;;;;4450946;32;20207;-50
2021/09/02 01:42:54;;;;;;;6.35;3.85;;;;;;;;;;4458097;32;20295;-50
2021/09/02 01:45:21;;;;;;;7.93;3.37;;;;;;;;;;4459922;32;20582;-50
2021/09/02 01:47:47;;;;;;;4.97;3.08;;;;;;;;;;4455039;32;20228;-50
2021/09/02 01:50:19;;;;;;;5.87;2.67;;;;;;;;;;4462744;32;20317;-51
2021/09/02 01:52:45;;;;;;;7.65;3.50;;;;;;;;;;4463648;32;20262;-50
2021/09/02 01:55:11;;;;;;;5.60;3.15;;;;;;;;;;4462267;32;20212;-50
2021/09/02 01:57:38;;;;;;;4.53;3.45;;;;;;;;;;4463555;32;20247;-50
2021/09/02 02:00:07;;;;;;;5.20;3.22;;;;;;;;;;4462999;32;20690;-50
2021/09/02 02:02:32;;;;;;;5.50;3.50;;;;;;;;;;4461951;32;20581;-50
2021/09/02 02:04:58;;;;;;;4.82;3.03;;;;;;;;;;4463127;32;20234;-51
2021/09/02 02:07:23;;;;;;;5.80;3.78;;;;;;;;;;4463184;32;20913;-51
2021/09/02 02:09:49;;;;;;;6.65;3.87;;;;;;;;;;4462619;32;20223;-51
2021/09/02 02:12:14;;;;;;;6.87;3.30;;;;;;;;;;4462842;32;20254;-51
2021/09/02 02:14:40;;;;;;;5.57;4.03;;;;;;;;;;4462565;32;20208;-51
2021/09/02 02:17:05;;;;;;;5.93;3.15;;;;;;;;;;4462934;32;20434;-51
2021/09/02 02:19:31;;;;;;;4.97;3.22;;;;;;;;;;4462782;32;20251;-51
2021/09/02 02:21:56;;;;;;;5.07;3.30;;;;;;;;;;4463015;32;20601;-50
2021/09/02 02:24:22;;;;;;;6.53;3.22;;;;;;;;;;4462197;32;20228;-50
2021/09/02 02:26:47;;;;;;;6.70;3.75;;;;;;;;;;4457125;32;20232;-51
2021/09/02 02:29:13;;;;;;;7.90;3.78;;;;;;;;;;4462359;32;20234;-51
2021/09/02 02:31:39;;;;;;;9.27;4.10;;;;;;;;;;4463135;32;20630;-51
2021/09/02 02:34:04;;;;;;;5.35;3.78;;;;;;;;;;4462194;32;20291;-51
2021/09/02 02:36:29;;;;;;;5.62;4.07;;;;;;;;;;4463096;32;20280;-50
2021/09/02 02:38:55;;;;;;;9.95;4.80;;;;;;;;;;4462957;32;20313;-50
2021/09/02 02:41:21;;;;;;;10.00;3.87;;;;;;;;;;4465844;32;20216;-50
2021/09/02 02:43:47;;;;;;;5.20;3.25;;;;;;;;;;4465792;32;20259;-50
2021/09/02 02:46:13;;;;;;;9.57;4.25;;;;;;;;;;4465743;32;20668;-50
2021/09/02 02:48:38;;;;;;;4.85;3.80;;;;;;;;;;4465973;32;20487;-51
2021/09/02 02:51:05;;;;;;;28.90;13.23;;;;;;;;;;4466190;32;20305;-50
2021/09/02 02:53:30;;;;;;;14.73;7.28;;;;;;;;;;4465170;32;20244;-50
2021/09/02 02:55:56;;;;;;;9.27;5.43;;;;;;;;;;4465983;32;20263;-51
2021/09/02 02:58:21;;;;;;;6.05;3.58;;;;;;;;;;4465059;32;20726;-51
2021/09/02 03:00:46;;;;;;;7.03;4.15;;;;;;;;;;4466476;32;20267;-51
2021/09/02 03:03:12;;;;;;;4.50;3.25;;;;;;;;;;4465120;32;20224;-51
2021/09/02 03:05:37;;;;;;;6.80;3.20;;;;;;;;;;4465387;32;20267;-50
2021/09/02 03:08:03;;;;;;;6.68;4.18;;;;;;;;;;4454922;32;20286;-51
2021/09/02 03:10:29;;;;;;;4.97;3.78;;;;;;;;;;4464636;32;20204;-51
2021/09/02 03:12:55;;;;;;;7.18;3.28;;;;;;;;;;4465905;32;20356;-52
2021/09/02 03:15:21;;;;;;;3.60;2.75;;;;;;;;;;4465433;32;20248;-51
2021/09/02 03:17:46;;;;;;;7.07;3.53;;;;;;;;;;4465126;32;20350;-51
2021/09/02 03:20:12;;;;;;;5.90;3.22;;;;;;;;;;4464842;32;20216;-50
2021/09/02 03:22:38;;;;;;;6.87;3.83;;;;;;;;;;4465556;32;20269;-50
2021/09/02 03:25:04;;;;;;;4.60;3.15;;;;;;;;;;4464566;32;20300;-51
2021/09/02 03:27:29;;;;;;;4.87;3.70;;;;;;;;;;4464558;32;20235;-50
2021/09/02 03:29:55;;;;;;;6.40;3.97;;;;;;;;;;4464595;32;20327;-50
2021/09/02 03:32:20;;;;;;;7.18;3.58;;;;;;;;;;4464631;32;20307;-50
2021/09/02 03:34:46;;;;;;;5.45;3.28;;;;;;;;;;4464795;32;20295;-50
2021/09/02 03:37:11;;;;;;;3.45;3.00;;;;;;;;;;4464634;32;20283;-50
2021/09/02 03:39:37;;;;;;;3.83;3.28;;;;;;;;;;4465433;32;20664;-51
2021/09/02 03:42:02;;;;;;;4.55;3.33;;;;;;;;;;4464115;32;20354;-51
2021/09/02 03:44:28;;;;;;;6.30;4.15;;;;;;;;;;4464635;32;20284;-51
2021/09/02 03:46:53;;;;;;;4.55;3.87;;;;;;;;;;4464919;32;20379;-51
2021/09/02 03:49:19;;;;;;;4.50;3.22;;;;;;;;;;4464933;32;20275;-50
2021/09/02 03:51:44;;;;;;;9.25;3.22;;;;;;;;;;4464526;32;20239;-51
2021/09/02 03:54:10;;;;;;;6.05;3.62;;;;;;;;;;4464908;32;20578;-51
2021/09/02 03:56:35;;;;;;;4.53;3.25;;;;;;;;;;4465411;32;20291;-51
2021/09/02 03:59:01;;;;;;;7.03;4.22;;;;;;;;;;4464012;32;20212;-52
2021/09/02 04:01:26;;;;;;;5.15;3.15;;;;;;;;;;4465078;32;20323;-51
2021/09/02 04:03:53;;;;;;;5.40;3.10;;;;;;;;;;4464224;32;20204;-52
2021/09/02 04:06:19;;;;;;;6.12;4.12;;;;;;;;;;4464643;32;20247;-52
2021/09/02 04:08:45;;;;;;;4.03;3.35;;;;;;;;;;4460103;32;20275;-51
2021/09/02 04:11:10;;;;;;;7.25;3.55;;;;;;;;;;4464933;32;20331;-51
2021/09/02 04:13:35;;;;;;;5.00;3.87;;;;;;;;;;4464257;32;20730;-51
2021/09/02 04:16:01;;;;;;;6.80;4.12;;;;;;;;;;4464582;32;20274;-51
2021/09/02 04:18:27;;;;;;;11.30;4.87;;;;;;;;;;4463661;32;20304;-51
2021/09/02 04:20:52;;;;;;;6.55;4.00;;;;;;;;;;4464489;32;20720;-52
2021/09/02 04:23:18;;;;;;;7.62;4.72;;;;;;;;;;4463038;32;20310;-51
2021/09/02 04:25:43;;;;;;;9.98;3.85;;;;;;;;;;4463551;32;20612;-52
2021/09/02 04:28:09;;;;;;;9.65;4.45;;;;;;;;;;4463559;32;20841;-52
2021/09/02 04:30:34;;;;;;;8.13;4.20;;;;;;;;;;4464163;32;20311;-51
2021/09/02 04:33:01;;;;;;;5.57;3.75;;;;;;;;;;4463369;32;20357;-51
2021/09/02 04:35:28;;;;;;;5.35;3.47;;;;;;;;;;4464332;32;20212;-51
2021/09/02 04:37:53;;;;;;;10.68;4.25;;;;;;;;;;4464126;32;20239;-51
2021/09/02 04:40:19;;;;;;;5.28;3.25;;;;;;;;;;4464153;32;20306;-51
2021/09/02 04:42:45;;;;;;;5.45;3.87;;;;;;;;;;4464518;32;20676;-52
2021/09/02 04:45:11;;;;;;;5.53;3.62;;;;;;;;;;4463690;32;20251;-51
2021/09/02 04:47:36;;;;;;;11.15;3.70;;;;;;;;;;4457580;32;20254;-51
2021/09/02 04:50:04;;;;;;;5.68;3.97;;;;;;;;;;4464150;32;20201;-51
2021/09/02 04:52:30;;;;;;;6.22;3.60;;;;;;;;;;4463829;32;20216;-51
2021/09/02 04:54:55;;;;;;;3.47;2.87;;;;;;;;;;4464472;32;20283;-51
2021/09/02 04:57:21;;;;;;;7.37;3.70;;;;;;;;;;4463524;32;20239;-51
2021/09/02 04:59:47;;;;;;;8.30;3.95;;;;;;;;;;4463286;32;20704;-51
2021/09/02 05:02:14;;;;;;;5.53;3.60;;;;;;;;;;4463219;32;20259;-51
2021/09/02 05:04:39;;;;;;;6.60;4.00;;;;;;;;;;4448508;32;20200;-51
2021/09/02 05:07:05;;;;;;;5.10;3.62;;;;;;;;;;4451819;32;20254;-51
2021/09/02 05:09:30;;;;;;;6.72;4.30;;;;;;;;;;4463557;32;20212;-51
2021/09/02 05:11:56;;;;;;;5.45;3.35;;;;;;;;;;4449966;32;20297;-51
2021/09/02 05:14:21;;;;;;;6.35;3.97;;;;;;;;;;4463619;32;20220;-51
2021/09/02 05:16:47;;;;;;;7.05;4.07;;;;;;;;;;4463631;32;20248;-51
2021/09/02 05:19:12;;;;;;;12.30;4.07;;;;;;;;;;4462745;32;20238;-52
2021/09/02 05:21:37;;;;;;;5.12;3.60;;;;;;;;;;4463398;32;20279;-51
2021/09/02 05:24:03;;;;;;;6.07;3.92;;;;;;;;;;4461624;32;20573;-52
2021/09/02 05:26:29;;;;;;;6.78;4.20;;;;;;;;;;4462026;32;20240;-51
2021/09/02 05:28:55;;;;;;;5.30;3.65;;;;;;;;;;4463670;32;20502;-52
2021/09/02 05:31:22;;;;;;;5.68;3.83;;;;;;;;;;4463595;32;20349;-52
2021/09/02 05:33:48;;;;;;;6.53;4.10;;;;;;;;;;4462775;32;20669;-51
2021/09/02 05:36:14;;;;;;;8.73;4.32;;;;;;;;;;4463319;32;20473;-52
2021/09/02 05:38:40;;;;;;;7.97;3.97;;;;;;;;;;4462242;32;20200;-52
2021/09/02 05:41:05;;;;;;;4.25;3.47;;;;;;;;;;4463099;32;20426;-51
2021/09/02 05:43:32;;;;;;;7.97;4.85;;;;;;;;;;4462698;32;20377;-52
2021/09/02 05:45:58;;;;;;;6.90;4.28;;;;;;;;;;4462925;32;20682;-49
2021/09/02 05:48:23;;;;;;;12.48;5.10;;;;;;;;;;4462415;32;20257;-51
2021/09/02 05:50:50;;;;;;;7.80;3.87;;;;;;;;;;4460525;32;20335;-51
2021/09/02 05:53:16;;;;;;;6.30;4.18;;;;;;;;;;4460318;32;20698;-50
2021/09/02 05:55:41;;;;;;;6.20;4.30;;;;;;;;;;4460422;32;20287;-52
2021/09/02 05:58:07;;;;;;;5.43;3.72;;;;;;;;;;4460508;32;20417;-51
2021/09/02 06:00:32;;;;;;;5.07;3.95;;;;;;;;;;4463201;32;20267;-51
2021/09/02 06:02:58;;;;;;;9.65;4.85;;;;;;;;;;4462171;32;20243;-51
2021/09/02 06:05:23;;;;;;;9.40;4.37;;;;;;;;;;4460192;32;21133;-51
2021/09/02 06:07:49;;;;;;;6.72;4.20;;;;;;;;;;4461601;32;20271;-50
2021/09/02 06:10:14;;;;;;;10.40;4.30;;;;;;;;;;4462770;32;20300;-50
2021/09/02 06:12:40;;;;;;;7.12;4.93;;;;;;;;;;4461813;32;20232;-51
2021/09/02 06:15:07;;;;;;;7.80;4.47;;;;;;;;;;4464563;32;20326;-51
2021/09/02 06:17:33;;;;;;;10.88;6.15;;;;;;;;;;4466317;32;20232;-52
2021/09/02 06:19:58;;;;;;;7.55;5.93;;;;;;;;;;4466074;32;20275;-52
2021/09/02 06:22:24;;;;;;;12.65;5.47;;;;;;;;;;4464417;32;20270;-51
2021/09/02 06:24:49;;;;;;;16.23;5.60;;;;;;;;;;4464894;32;20270;-52
2021/09/02 06:27:15;;;;;;;9.15;5.43;;;;;;;;;;4464664;32;20572;-52
2021/09/02 06:29:40;;;;;;;10.73;6.28;;;;;;;;;;4466148;32;20223;-52
2021/09/02 06:32:06;;;;;;;16.10;6.95;;;;;;;;;;4465626;32;20306;-52
2021/09/02 06:34:31;;;;;;;10.35;6.82;;;;;;;;;;4465273;32;20302;-52
2021/09/02 06:36:57;;;;;;;11.10;6.15;;;;;;;;;;4465723;32;20220;-52
2021/09/02 06:39:22;;;;;;;15.02;7.07;;;;;;;;;;4464600;32;20208;-52
2021/09/02 06:41:48;;;;;;;12.63;6.45;;;;;;;;;;4465926;32;20310;-52
2021/09/02 06:44:13;;;;;;;8.88;6.03;;;;;;;;;;4465209;32;20231;-52
2021/09/02 06:46:39;;;;;;;10.20;6.40;;;;;;;;;;4465429;32;20636;-52
2021/09/02 06:49:04;;;;;;;16.98;6.72;;;;;;;;;;4465171;32;20272;-52
2021/09/02 06:51:30;;;;;;;20.17;8.00;;;;;;;;;;4465114;32;20220;-52
2021/09/02 06:53:55;;;;;;;14.20;5.87;;;;;;;;;;4456369;32;20310;-52
2021/09/02 06:56:21;;;;;;;15.57;7.85;;;;;;;;;;4465664;32;20300;-52
2021/09/02 06:58:46;;;;;;;10.30;6.72;;;;;;;;;;4465128;32;20228;-52
2021/09/02 07:01:13;;;;;;;9.00;5.28;;;;;;;;;;4465804;32;20287;-52
2021/09/02 07:03:40;;;;;;;14.43;5.68;;;;;;;;;;4464676;32;20216;-52
2021/09/02 07:06:06;;;;;;;15.57;5.82;;;;;;;;;;4463777;32;20327;-52
2021/09/02 07:08:33;;;;;;;10.27;6.18;;;;;;;;;;4464673;32;20743;-52
2021/09/02 07:10:58;;;;;;;9.20;4.93;;;;;;;;;;4465123;32;20251;-52
2021/09/02 07:13:24;;;;;;;6.95;4.93;;;;;;;;;;4464573;32;20763;-52
2021/09/02 07:15:49;;;;;;;6.70;4.68;;;;;;;;;;4464902;32;20272;-53
2021/09/02 07:18:15;;;;;;;5.07;3.72;;;;;;;;;;4464266;32;20254;-52
2021/09/02 07:20:40;;;;;;;4.62;3.28;;;;;;;;;;4464730;32;20306;-54
2021/09/02 07:23:05;;;;;;;4.22;3.33;;;;;;;;;;4464071;32;20311;-52
2021/09/02 07:25:31;;;;;;;5.20;2.97;;;;;;;;;;4463729;32;20212;-52
2021/09/02 07:27:57;;;;;;;6.97;3.90;;;;;;;;;;4463970;32;20227;-52
2021/09/02 07:30:23;;;;;;;4.80;3.60;;;;;;;;;;4463431;32;20266;-51
2021/09/02 07:32:48;;;;;;;5.62;3.50;;;;;;;;;;4464792;32;20308;-52
2021/09/02 07:35:13;;;;;;;4.30;3.30;;;;;;;;;;4464657;32;20220;-52
2021/09/02 07:37:40;;;;;;;5.28;3.70;;;;;;;;;;4464664;32;20248;-51
2021/09/02 07:40:05;;;;;;;7.05;3.15;;;;;;;;;;4463731;32;20208;-51
2021/09/02 07:42:31;;;;;;;4.53;3.12;;;;;;;;;;4464418;32;20310;-51
2021/09/02 07:44:58;;;;;;;5.32;3.53;;;;;;;;;;4464440;32;20233;-50
2021/09/02 07:47:23;;;;;;;6.03;3.80;;;;;;;;;;4464236;32;20294;-52
2021/09/02 07:49:49;;;;;;;4.68;2.92;;;;;;;;;;4463976;32;20353;-52
2021/09/02 07:52:14;;;;;;;4.72;3.25;;;;;;;;;;4464296;32;20530;-53
2021/09/02 07:54:40;;;;;;;5.22;3.30;;;;;;;;;;4465401;32;20283;-52
2021/09/02 07:57:05;;;;;;;5.82;2.97;;;;;;;;;;4464614;32;20346;-52
2021/09/02 07:59:31;;;;;;;11.60;3.37;;;;;;;;;;4463845;32;20278;-51
2021/09/02 08:01:56;;;;;;;7.50;3.40;;;;;;;;;;4451861;32;20267;-51
2021/09/02 08:04:22;;;;;;;4.07;2.92;;;;;;;;;;4463007;32;20204;-51
2021/09/02 08:06:47;;;;;;;4.90;2.87;;;;;;;;;;4463103;32;20232;-51
2021/09/02 08:09:13;;;;;;;5.53;2.45;;;;;;;;;;4462371;32;20199;-51
2021/09/02 08:11:39;;;;;;;6.07;3.50;;;;;;;;;;4461891;32;20236;-51
2021/09/02 08:14:04;;;;;;;4.72;2.92;;;;;;;;;;4462570;32;20273;-51
2021/09/02 08:16:30;;;;;;;5.18;3.22;;;;;;;;;;4463784;32;20255;-51
2021/09/02 08:18:58;;;;;;;8.95;3.62;;;;;;;;;;4464688;32;20798;-51
2021/09/02 08:21:24;;;;;;;4.00;2.65;;;;;;;;;;4464583;32;20564;-51
2021/09/02 08:23:50;;;;;;;3.45;2.35;;;;;;;;;;4463318;32;20291;-52
2021/09/02 08:26:16;;;;;;;4.40;3.00;;;;;;;;;;4463950;32;20734;-51
2021/09/02 08:28:42;;;;;;;7.68;3.30;;;;;;;;;;4464068;32;20232;-51
2021/09/02 08:31:07;;;;;;;5.95;3.37;;;;;;;;;;4464448;32;20279;-52
2021/09/02 08:33:33;;;;;;;3.87;2.67;;;;;;;;;;4463589;32;20295;-51
2021/09/02 08:35:59;;;;;;;5.35;2.95;;;;;;;;;;4464460;32;20306;-51
2021/09/02 08:38:24;;;;;;;4.53;2.78;;;;;;;;;;4462798;32;20374;-52
2021/09/02 08:40:50;;;;;;;8.07;3.22;;;;;;;;;;4463781;32;20329;-51
2021/09/02 08:43:16;;;;;;;5.62;2.28;;;;;;;;;;4463403;32;20382;-50
2021/09/02 08:45:41;;;;;;;3.60;2.45;;;;;;;;;;4461889;32;20662;-51
2021/09/02 08:48:08;;;;;;;8.32;3.05;;;;;;;;;;4463257;32;20255;-51
2021/09/02 08:50:37;;;;;;;4.47;3.00;;;;;;;;;;4461865;32;20555;-52
2021/09/02 08:53:04;;;;;;;4.25;2.62;;;;;;;;;;4462546;32;20553;-51
2021/09/02 08:55:30;;;;;;;2.97;2.42;;;;;;;;;;4464461;32;20250;-51
2021/09/02 08:57:57;;;;;;;4.82;3.17;;;;;;;;;;4463112;32;20725;-52
2021/09/02 09:00:25;;;;;;;3.20;2.15;;;;;;;;;;4463297;32;20223;-51
2021/09/02 09:03:01;;;;;;;2.75;2.35;;;;;;;;;;4462800;32;20228;-52
2021/09/02 09:05:30;;;;;;;2.40;2.12;;;;;;;;;;4462064;32;20711;-51
2021/09/02 09:07:56;;;;;;;3.90;2.78;;;;;;;;;;4460924;32;20311;-51
2021/09/02 09:10:26;;;;;;;2.92;2.40;;;;;;;;;;4452164;32;20496;-51
2021/09/02 09:12:56;;;;;;;3.55;1.65;;;;;;;;;;4458632;32;20255;-51
2021/09/02 09:15:24;;;;;;;3.42;2.28;;;;;;;;;;4461804;32;20535;-51
2021/09/02 09:17:53;;;;;;;3.35;2.40;;;;;;;;;;4463096;32;20247;-51
2021/09/02 09:20:20;;;;;;;4.47;2.67;;;;;;;;;;4463539;32;20208;-51
2021/09/02 09:23:04;;;;;;;5.65;2.28;;;;;;;;;;4462980;32;20287;-51
2021/09/02 09:25:30;;;;;;;5.47;2.83;;;;;;;;;;4461843;32;20372;-52
2021/09/02 09:28:00;;;;;;;5.28;2.45;;;;;;;;;;4460120;32;20384;-52
2021/09/02 09:30:34;;;;;;;2.65;2.08;;;;;;;;;;4463298;32;20220;-51
2021/09/02 09:33:05;;;;;;;4.62;2.87;;;;;;;;;;4463088;32;20248;-52
2021/09/02 09:35:36;;;;;;;4.80;2.90;;;;;;;;;;4463141;32;20212;-52
2021/09/02 09:38:16;;;;;;;5.05;2.28;;;;;;;;;;4463740;32;20269;-52
2021/09/02 09:40:49;;;;;;;3.95;2.87;;;;;;;;;;4462639;32;20231;-51
2021/09/02 09:43:22;;;;;;;8.27;2.17;;;;;;;;;;4452716;32;20240;-51
2021/09/02 09:45:53;;;;;;;7.82;3.40;;;;;;;;;;4463428;32;20201;-52
2021/09/02 09:48:30;;;;;;;2.10;1.85;;;;;;;;;;4461632;32;20641;-52
2021/09/02 09:51:11;;;;;;;2.12;1.92;;;;;;;;;;4463307;32;20294;-52
2021/09/02 09:53:38;;;;;;;2.70;2.10;;;;;;;;;;4463240;32;20287;-51
2021/09/02 09:56:04;;;;;;;5.35;1.87;;;;;;;;;;4462325;32;20212;-52
2021/09/02 09:58:30;;;;;;;4.35;2.40;;;;;;;;;;4462901;32;20267;-52
2021/09/02 10:00:58;;;;;;;4.35;2.08;;;;;;;;;;4462936;32;20330;-53
2021/09/02 10:03:24;;;;;;;4.50;2.50;;;;;;;;;;4463010;32;20344;-53
2021/09/02 10:05:51;;;;;;;6.40;2.40;;;;;;;;;;4463291;32;20633;-52
2021/09/02 10:08:19;;;;;;;4.22;2.33;;;;;;;;;;4463181;32;20641;-51
2021/09/02 10:10:46;;;;;;;4.10;2.40;;;;;;;;;;4462769;32;20208;-52
2021/09/02 10:13:13;;;;;;;3.45;1.75;;;;;;;;;;4462480;32;20244;-52
2021/09/02 10:15:39;;;;;;;2.85;2.08;;;;;;;;;;4463374;32;20287;-52
2021/09/02 10:18:05;;;;;;;3.35;1.80;;;;;;;;;;4462012;32;20604;-52
2021/09/02 10:20:38;;;;;;;3.25;2.10;;;;;;;;;;4458688;32;20232;-51
2021/09/02 10:23:06;;;;;;;2.40;1.85;;;;;;;;;;4463357;32;20307;-52
2021/09/02 10:25:32;;;;;;;3.12;2.00;;;;;;;;;;4462656;32;20216;-52
2021/09/02 10:28:00;;;;;;;3.65;2.22;;;;;;;;;;4462245;32;20372;-52
2021/09/02 10:30:27;;;;;;;2.42;1.87;;;;;;;;;;4462589;32;20669;-53
2021/09/02 10:32:54;;;;;;;2.85;1.73;;;;;;;;;;4463059;32;20263;-52
2021/09/02 10:35:20;;;;;;;3.67;2.35;;;;;;;;;;4462416;32;20216;-53
2021/09/02 10:37:45;;;;;;;3.35;2.15;;;;;;;;;;4462544;32;20671;-52
2021/09/02 10:40:36;;;;;;;4.43;3.00;;;;;;;;;;4462377;32;20340;-53
2021/09/02 10:43:02;;;;;;;3.65;2.47;;;;;;;;;;4444616;32;20312;-53
2021/09/02 10:45:28;;;;;;;2.80;2.03;;;;;;;;;;4461911;32;20308;-52
2021/09/02 10:48:00;;;;;;;2.78;2.05;;;;;;;;;;4462052;32;20288;-53
2021/09/02 10:50:34;;;;;;;4.47;2.78;;;;;;;;;;4462590;32;20231;-52
2021/09/02 10:53:11;;;;;;;6.97;2.17;;;;;;;;;;4459803;32;20327;-52
2021/09/02 10:55:47;;;;;;;2.70;1.98;;;;;;;;;;4461367;32;20204;-52
2021/09/02 10:58:45;;;;;;;2.85;2.17;;;;;;;;;;4463166;32;20242;-52
2021/09/02 11:01:23;;;;;;;3.45;1.92;;;;;;;;;;4464473;32;20645;-51
2021/09/02 11:03:52;;;;;;;3.17;2.10;;;;;;;;;;4464827;32;20444;-52
2021/09/02 11:06:18;;;;;;;4.28;2.35;;;;;;;;;;4465685;32;20299;-52
2021/09/02 11:08:44;;;;;;;5.95;2.33;;;;;;;;;;4465551;32;20227;-52
2021/09/02 11:11:18;;;;;;;2.95;2.40;;;;;;;;;;4465338;32;20313;-52
2021/09/02 11:13:45;;;;;;;2.42;2.10;;;;;;;;;;4460974;32;20520;-52
2021/09/02 11:16:12;;;;;;;3.08;2.42;;;;;;;;;;4464826;32;20666;-52
2021/09/02 11:18:47;;;;;;;3.03;2.20;;;;;;;;;;4465143;32;20288;-52
2021/09/02 11:21:16;;;;;;;3.75;2.30;;;;;;;;;;4455204;32;20640;-52
2021/09/02 11:23:47;;;;;;;3.62;3.03;;;;;;;;;;4458288;32;20696;-52
2021/09/02 11:26:34;;;;;;;3.35;2.22;;;;;;;;;;4463528;32;20220;-51
2021/09/02 11:29:00;;;;;;;4.90;2.17;;;;;;;;;;4462129;32;20273;-52
2021/09/02 11:31:26;;;;;;;6.37;2.12;;;;;;;;;;4461996;32;20355;-52
2021/09/02 11:33:52;;;;;;;3.78;2.30;;;;;;;;;;4445571;32;20280;-52
2021/09/02 11:36:19;;;;;;;4.10;2.60;;;;;;;;;;4444387;32;20240;-52
2021/09/02 11:38:46;;;;;;;3.53;1.90;;;;;;;;;;4446240;32;20254;-52
2021/09/02 11:41:19;;;;;;;3.75;2.92;;;;;;;;;;4446013;32;20386;-52
2021/09/02 11:43:45;;;;;;;2.95;2.55;;;;;;;;;;4446265;32;20337;-52
2021/09/02 11:46:10;;;;;;;3.12;2.40;;;;;;;;;;4445852;32;20362;-51
2021/09/02 11:48:54;;;;;;;4.95;2.78;;;;;;;;;;4445828;32;20298;-52
2021/09/02 11:51:25;;;;;;;2.75;2.47;;;;;;;;;;4448101;32;20471;-52
2021/09/02 11:54:09;;;;;;;3.53;2.45;;;;;;;;;;4447801;32;20337;-52
2021/09/02 11:56:37;;;;;;;5.28;3.35;;;;;;;;;;4447631;32;20249;-52
2021/09/02 11:59:04;;;;;;;5.72;2.78;;;;;;;;;;4449275;32;20224;-52
2021/09/02 12:01:30;;;;;;;8.95;3.12;;;;;;;;;;4449439;32;20228;-51
2021/09/02 12:03:55;;;;;;;3.08;2.65;;;;;;;;;;4449231;32;20288;-52
2021/09/02 12:06:29;;;;;;;3.40;2.72;;;;;;;;;;4449126;32;20232;-51
2021/09/02 12:09:00;;;;;;;6.50;3.25;;;;;;;;;;4449622;32;20214;-51
2021/09/02 12:11:26;;;;;;;6.03;3.53;;;;;;;;;;4448868;32;20309;-52
2021/09/02 12:13:54;;;;;;;5.00;3.83;;;;;;;;;;4449291;32;20788;-53
2021/09/02 12:16:22;;;;;;;9.50;4.70;;;;;;;;;;4449041;32;20284;-51
2021/09/02 12:18:49;;;;;;;4.72;3.80;;;;;;;;;;4449367;32;20250;-52
2021/09/02 12:21:24;;;;;;;5.60;4.22;;;;;;;;;;4449108;32;20246;-52
2021/09/02 12:23:52;;;;;;;5.10;3.92;;;;;;;;;;4449173;32;20214;-52
2021/09/02 12:26:20;;;;;;;4.75;4.20;;;;;;;;;;4460848;32;20248;-52
2021/09/02 12:28:48;;;;;;;4.85;4.22;;;;;;;;;;4460121;32;20220;-53
2021/09/02 12:31:26;;;;;;;4.07;3.67;;;;;;;;;;4449103;32;20355;-53
2021/09/02 12:34:18;;;;;;;8.32;4.43;;;;;;;;;;4464579;32;20298;-52
2021/09/02 12:36:45;;;;;;;6.60;4.75;;;;;;;;;;4465006;32;20232;-51
2021/09/02 12:39:34;;;;;;;4.95;3.95;;;;;;;;;;4464782;32;20226;-51
2021/09/02 12:42:04;;;;;;;5.62;4.07;;;;;;;;;;4457037;32;20224;-51
2021/09/02 12:44:34;;;;;;;5.75;4.80;;;;;;;;;;4464886;32;20219;-52
2021/09/02 12:47:14;;;;;;;5.68;4.20;;;;;;;;;;4465028;32;20254;-52
2021/09/02 12:49:46;;;;;;;4.18;3.42;;;;;;;;;;4464759;32;20642;-52
2021/09/02 12:52:19;;;;;;;5.20;3.80;;;;;;;;;;4463393;32;20232;-52
2021/09/02 12:55:08;;;;;;;4.43;3.55;;;;;;;;;;4463975;32;20262;-52
2021/09/02 12:57:55;;;;;;;4.70;3.92;;;;;;;;;;4454372;32;20314;-51
2021/09/02 13:00:34;;;;;;;4.20;3.83;;;;;;;;;;4464403;32;20474;-51
2021/09/02 13:03:07;;;;;;;3.75;3.35;;;;;;;;;;4464050;32;20232;-51
2021/09/02 13:05:34;;;;;;;4.72;2.78;;;;;;;;;;4464114;32;20267;-52
2021/09/02 13:08:04;;;;;;;4.87;3.40;;;;;;;;;;4464624;32;20229;-50
2021/09/02 13:10:32;;;;;;;5.70;3.25;;;;;;;;;;4463819;32;20490;-52
2021/09/02 13:12:59;;;;;;;3.45;3.15;;;;;;;;;;4464163;32;20247;-52
2021/09/02 13:15:26;;;;;;;3.80;3.03;;;;;;;;;;4463508;32;20224;-52
2021/09/02 13:17:51;;;;;;;4.85;3.67;;;;;;;;;;4463549;32;20267;-52
2021/09/02 13:20:17;;;;;;;4.12;3.42;;;;;;;;;;4464038;32;20623;-52
2021/09/02 13:22:44;;;;;;;4.72;2.35;;;;;;;;;;4463985;32;20303;-52
2021/09/02 13:25:12;;;;;;;3.17;2.90;;;;;;;;;;4457699;32;20562;-52
2021/09/02 13:27:38;;;;;;;4.90;3.15;;;;;;;;;;4448673;32;20263;-52
2021/09/02 13:30:06;;;;;;;3.90;2.95;;;;;;;;;;4449142;32;20196;-52
2021/09/02 13:32:31;;;;;;;4.10;3.03;;;;;;;;;;4453692;32;20312;-51
2021/09/02 13:34:58;;;;;;;4.97;2.62;;;;;;;;;;4464174;32;20354;-52
2021/09/02 13:37:24;;;;;;;4.45;2.42;;;;;;;;;;4464196;32;20232;-52
2021/09/02 13:39:50;;;;;;;3.95;3.17;;;;;;;;;;4463529;32;20630;-52
2021/09/02 13:42:16;;;;;;;3.25;2.62;;;;;;;;;;4463910;32;20584;-52
2021/09/02 13:44:41;;;;;;;4.68;3.62;;;;;;;;;;4463712;32;20664;-52
2021/09/02 13:47:07;;;;;;;4.90;2.60;;;;;;;;;;4463648;32;20259;-51
2021/09/02 13:49:32;;;;;;;5.75;3.92;;;;;;;;;;4463753;32;20374;-52
2021/09/02 13:51:57;;;;;;;4.15;2.55;;;;;;;;;;4463830;32;20227;-51
2021/09/02 13:54:23;;;;;;;5.03;3.30;;;;;;;;;;4463399;32;20231;-51
2021/09/02 13:56:49;;;;;;;3.55;2.87;;;;;;;;;;4463562;32;20224;-52
2021/09/02 13:59:15;;;;;;;3.95;2.90;;;;;;;;;;4463453;32;20291;-52
2021/09/02 14:01:41;;;;;;;3.37;2.55;;;;;;;;;;4463487;32;20286;-52
2021/09/02 14:04:08;;;;;;;2.83;2.50;;;;;;;;;;4463487;32;20249;-52
2021/09/02 14:06:34;;;;;;;3.72;3.00;;;;;;;;;;4463254;32;20345;-54
2021/09/02 14:08:59;;;;;;;5.37;2.47;;;;;;;;;;4463535;32;20230;-52
2021/09/02 14:11:25;;;;;;;3.53;2.35;;;;;;;;;;4463293;32;20224;-52
2021/09/02 14:13:50;;;;;;;6.28;3.08;;;;;;;;;;4463259;32;20283;-52
2021/09/02 14:16:16;;;;;;;3.55;2.80;;;;;;;;;;4461276;32;20228;-51
2021/09/02 14:18:41;;;;;;;5.05;3.33;;;;;;;;;;4447336;32;20623;-51
2021/09/02 14:21:07;;;;;;;4.22;2.72;;;;;;;;;;4451704;32;20279;-50
2021/09/02 14:23:33;;;;;;;4.18;2.30;;;;;;;;;;4462938;32;20316;-52
2021/09/02 14:25:59;;;;;;;5.78;3.12;;;;;;;;;;4453821;32;20636;-52
2021/09/02 14:28:24;;;;;;;4.87;2.92;;;;;;;;;;4447362;32;20453;-53
2021/09/02 14:30:50;;;;;;;4.85;3.35;;;;;;;;;;4447785;32;20290;-54
2021/09/02 14:33:19;;;;;;;4.18;2.92;;;;;;;;;;4458177;32;20680;-52
2021/09/02 14:35:45;;;;;;;2.90;2.25;;;;;;;;;;4464129;32;20229;-52
2021/09/02 14:38:10;;;;;;;4.20;2.75;;;;;;;;;;4466319;32;20293;-52
2021/09/02 14:40:37;;;;;;;7.47;2.87;;;;;;;;;;4465797;32;20330;-54